Aérodrome :
LOGIN :

S'inscrire | Disclaimer

   EN    FR    IT 

 










Légende :    VFR   VFR Marginal   IFR   IFR Intensif   IFR Très Intensif
Visi : 
Plafond : 
>= 8 km
>= 3000ft
5 à 8 km
1000 à 3000 ft
1500m à 5 km
500 à 1000 ft
800 à 1500m
200 à 500 ft
< 800m
< 200 ft
Symboles :   Orages  Brouillard  Fortes neiges  Fortes précipitations  Vent > 20 kt
SIGMETs :   Divers  Orages  Givrage  Turbulence  Onde Orograph.  Cendres Volcan.






- Altitude de l'aérodrome : 147 ft
- Code IATA : DUS


EDDL - Düsseldorf Int.

DERNIER METAR :
  • 200650Z 16016KT 9999 BKN032 07/02 Q1001 NOSIG

METARs EXPIRÉS :
  • 200620Z 17017KT 9999 BKN036 07/01 Q1001 NOSIG
  • 200550Z 17014KT 150V210 9999 FEW040 BKN046 07/01 Q1001 NOSIG
  • 200520Z 16013KT CAVOK 07/01 Q1002 NOSIG
  • 200450Z 16011KT CAVOK 07/02 Q1002 NOSIG
  • 200420Z 17013KT CAVOK 06/02 Q1003 NOSIG

TAF TAF EDDL
Valide du 20 à 06h jusqu'au 21 à 12h UTC


200500Z 2006/2112 18015G25KT 9999 FEW045
TEMPO 2009/2024 17020G30KT
BECMG 2100/2103 17020G35KT
TEMPO 2104/2108 20025G45KT RA



MET'MAP, la Météo Aéronautique d'un coup d'oeil ! - Copyright ORBIFLY Décembre 2007 - Disclaimer

ORBIFLY MET'MAP TEAM :

Programmation & Développement : Alexandra Zaïnal
Sur une idée originale de : Baudouin d'Aumeries
Assistance à la programmation : Marc-Olivier Méhu
Soutien technique & logistique : Manuel Goepfert

Contact : metmap@orbifly.com




SOURCES & CREDITS :

   NOAA